Aviation Digital Data Service (ADDS)

Output produced by METARs form (1256 UTC 19 December 2014)
found at http://aviationweather.gov/adds/metars/
 
KSYR 191129Z 1912/2012 30010KT P6SM OVC020 
     TEMPO 1912/1915 -FZDZSN OVC015 
     FM191500 32009KT P6SM OVC018 
     FM200400 34005KT P6SM BKN015